EmailTwitter


Surface observations / United Kingdom / EGHI (03865)

Regions: Quebec | Canada | USA | Europe | France | UK | Elsewhere
Station
Display
Info & Location for EGHI (03865) | Help decoding METAR

Weather Conditions observed on 2017/05/28 at 11:50 UTC at SOUTHAMPTON WX C, UK (EGHI)

Sky conditions: few clouds.

Temperature: 19.0 Celsius.

Dewpoint: 11.0 Celsius.

Relative Humidity: 60%

Winds: Variable at 6 km/h or 3 knots.

Mean Sea level Pressure: 101.80 kilopascals.

Horizontal visibility: 6.21 statute miles or 9.94 kilometers.

Coded METAR:

EGHI 281150Z VRB03KT 9999 FEW048 19/11 Q1018=